createdAt,value
2019-01-15T00:00:01.004Z,100789.63
2019-01-15T00:02:26.809Z,100782.45
2019-01-15T00:04:52.578Z,100796.14
2019-01-15T00:10:45.460Z,100786.80
2019-01-15T00:13:11.246Z,100782.80
2019-01-15T00:15:37.018Z,100789.81
2019-01-15T00:18:02.800Z,100791.16
2019-01-15T00:20:28.589Z,100783.84
2019-01-15T00:22:54.380Z,100786.21
2019-01-15T00:25:20.158Z,100787.89
2019-01-15T00:27:45.933Z,100789.41
2019-01-15T00:30:31.613Z,100779.14
2019-01-15T00:32:57.387Z,100779.14
2019-01-15T00:35:23.171Z,100789.70
2019-01-15T00:37:48.952Z,100793.07
2019-01-15T00:43:28.083Z,100806.05
2019-01-15T00:45:53.860Z,100805.89
2019-01-15T00:48:19.630Z,100800.71
2019-01-15T00:50:45.422Z,100801.19
2019-01-15T00:53:11.209Z,100803.16
2019-01-15T00:55:37.001Z,100804.47
2019-01-15T00:58:02.790Z,100797.93
2019-01-15T01:00:28.701Z,100800.06
2019-01-15T01:02:54.479Z,100813.41
2019-01-15T01:05:20.257Z,100793.05
2019-01-15T01:07:46.032Z,100802.89
2019-01-15T01:10:31.706Z,100795.00
2019-01-15T01:12:57.492Z,100795.00
2019-01-15T01:15:23.286Z,100799.42
2019-01-15T01:17:49.058Z,100799.27
2019-01-15T01:20:56.519Z,100796.84
2019-01-15T01:23:22.309Z,100788.83
2019-01-15T01:25:48.096Z,100780.48
2019-01-15T01:28:13.894Z,100774.08
2019-01-15T01:30:39.722Z,100782.21
2019-01-15T01:33:05.527Z,100783.36
2019-01-15T01:35:31.299Z,100778.12
2019-01-15T01:37:57.094Z,100783.23
2019-01-15T01:40:22.891Z,100781.09
2019-01-15T01:42:48.780Z,100781.04
2019-01-15T01:45:56.213Z,100774.08
2019-01-15T01:48:22.022Z,100771.64
2019-01-15T01:50:47.790Z,100774.25
2019-01-15T01:53:13.574Z,100770.48
2019-01-15T01:55:39.357Z,100777.23
2019-01-15T01:58:05.168Z,100773.10
2019-01-15T02:00:30.965Z,100773.50
2019-01-15T02:02:56.762Z,100761.66
2019-01-15T02:05:22.635Z,100767.18
2019-01-15T02:07:48.429Z,100761.84
2019-01-15T02:10:55.869Z,100752.41
2019-01-15T02:13:21.679Z,100744.23
2019-01-15T02:15:47.456Z,100743.88
2019-01-15T02:18:13.258Z,100746.89
2019-01-15T02:20:39.060Z,100744.23
2019-01-15T02:23:04.867Z,100741.77
2019-01-15T02:25:30.648Z,100738.94
2019-01-15T02:27:56.432Z,100737.77
2019-01-15T02:33:49.288Z,100731.30
2019-01-15T02:36:15.062Z,100728.47
2019-01-15T02:38:40.847Z,100738.68
2019-01-15T02:41:06.658Z,100721.66
2019-01-15T02:43:32.457Z,100717.34
2019-01-15T02:45:58.227Z,100710.66
2019-01-15T02:48:24.038Z,100722.22
2019-01-15T02:50:49.903Z,100715.40
2019-01-15T02:53:15.687Z,100715.77
2019-01-15T02:55:41.445Z,100711.42
2019-01-15T02:58:07.231Z,100706.94
2019-01-15T03:00:33.017Z,100713.14
2019-01-15T03:02:58.784Z,100711.97
2019-01-15T03:05:24.553Z,100712.18
2019-01-15T03:07:50.360Z,100705.19
2019-01-15T03:10:57.877Z,100710.70
2019-01-15T03:13:23.677Z,100703.36
2019-01-15T03:15:49.484Z,100691.16
2019-01-15T03:18:15.248Z,100687.35
2019-01-15T03:20:41.049Z,100689.00
2019-01-15T03:23:06.852Z,100677.97
2019-01-15T03:25:32.640Z,100683.34
2019-01-15T03:27:58.432Z,100667.80
2019-01-15T03:30:24.322Z,100669.51
2019-01-15T03:35:57.271Z,100667.49
2019-01-15T03:38:23.035Z,100665.64
2019-01-15T03:40:48.844Z,100658.08
2019-01-15T03:43:14.599Z,100669.77
2019-01-15T03:45:40.394Z,100660.75
2019-01-15T03:48:06.165Z,100651.10
2019-01-15T03:50:31.958Z,100655.80
2019-01-15T03:52:57.747Z,100660.48
2019-01-15T03:55:23.636Z,100653.44
2019-01-15T03:57:49.432Z,100644.11
2019-01-15T04:03:29.192Z,100630.73
2019-01-15T04:05:54.980Z,100625.57
2019-01-15T04:08:20.746Z,100620.88
2019-01-15T04:10:46.537Z,100620.88
2019-01-15T04:13:12.429Z,100619.04
2019-01-15T04:15:38.327Z,100612.34
2019-01-15T04:18:04.103Z,100610.67
2019-01-15T04:20:29.936Z,100608.33
2019-01-15T04:22:55.706Z,100596.63
2019-01-15T04:25:21.496Z,100600.14
2019-01-15T04:27:47.266Z,100599.80
2019-01-15T04:30:33.194Z,100583.26
2019-01-15T04:32:58.951Z,100585.61
2019-01-15T04:35:24.847Z,100599.30
2019-01-15T04:37:50.596Z,100594.78
2019-01-15T04:40:58.066Z,100599.78
2019-01-15T04:43:23.825Z,100584.94
2019-01-15T04:45:49.603Z,100605.97
2019-01-15T04:48:15.393Z,100588.91
2019-01-15T04:50:41.178Z,100599.77
2019-01-15T04:53:06.942Z,100586.89
2019-01-15T04:55:32.723Z,100592.22
2019-01-15T04:57:58.490Z,100589.25
2019-01-15T05:00:24.365Z,100595.08
2019-01-15T05:05:37.421Z,100589.24
2019-01-15T05:08:03.164Z,100581.22
2019-01-15T05:10:28.924Z,100580.40
2019-01-15T05:12:54.678Z,100572.37
2019-01-15T05:15:20.509Z,100579.56
2019-01-15T05:17:46.215Z,100571.03
2019-01-15T05:20:31.863Z,100561.86
2019-01-15T05:22:57.615Z,100553.33
2019-01-15T05:25:23.410Z,100560.67
2019-01-15T05:27:49.163Z,100553.01
2019-01-15T05:30:56.603Z,100558.87
2019-01-15T05:33:22.363Z,100558.52
2019-01-15T05:35:48.127Z,100560.35
2019-01-15T05:38:13.877Z,100551.84
2019-01-15T05:40:39.637Z,100546.14
2019-01-15T05:43:05.391Z,100548.02
2019-01-15T05:53:30.661Z,100540.33
2019-01-15T05:58:28.632Z,100536.47
2019-01-15T06:00:54.383Z,100534.14
2019-01-15T06:03:20.161Z,100533.66
2019-01-15T06:05:45.909Z,100538.84
2019-01-15T06:08:11.668Z,100542.49
2019-01-15T06:10:37.424Z,100552.69
2019-01-15T06:13:03.201Z,100551.88
2019-01-15T06:15:28.955Z,100548.69
2019-01-15T06:17:54.735Z,100547.20
2019-01-15T06:20:40.383Z,100557.57
2019-01-15T06:23:06.142Z,100557.57
2019-01-15T06:25:31.903Z,100561.58
2019-01-15T06:27:57.671Z,100564.26
2019-01-15T06:30:23.426Z,100561.92
2019-01-15T06:36:02.915Z,100561.41
2019-01-15T06:38:28.671Z,100558.22
2019-01-15T06:40:54.433Z,100561.91
2019-01-15T06:43:20.201Z,100553.20
2019-01-15T06:45:45.949Z,100559.72
2019-01-15T06:48:11.713Z,100564.92
2019-01-15T06:50:37.501Z,100560.72
2019-01-15T06:53:03.268Z,100567.58
2019-01-15T06:55:29.012Z,100564.24
2019-01-15T06:57:54.791Z,100560.71
2019-01-15T07:00:40.406Z,100569.27
2019-01-15T07:03:06.170Z,100563.91
2019-01-15T07:05:31.919Z,100566.89
2019-01-15T07:07:57.681Z,100575.94
2019-01-15T07:11:05.114Z,100569.09
2019-01-15T07:13:30.881Z,100562.06
2019-01-15T07:18:43.943Z,100566.56
2019-01-15T07:21:09.696Z,100562.03
2019-01-15T07:23:35.488Z,100566.56
2019-01-15T07:26:01.238Z,100574.61
2019-01-15T07:28:26.996Z,100567.91
2019-01-15T07:30:52.750Z,100563.20
2019-01-15T07:34:00.190Z,100566.88
2019-01-15T07:36:25.946Z,100569.55
2019-01-15T07:38:51.709Z,100579.60
2019-01-15T07:41:17.460Z,100563.72
2019-01-15T07:43:43.221Z,100572.23
2019-01-15T07:46:08.975Z,100574.55
2019-01-15T07:48:34.735Z,100569.53
2019-01-15T07:51:00.493Z,100580.39
2019-01-15T07:53:26.252Z,100579.58
2019-01-15T07:55:52.003Z,100566.81
2019-01-15T07:58:17.767Z,100567.81
2019-01-15T08:00:43.525Z,100567.81
2019-01-15T08:03:09.284Z,100569.16
2019-01-15T08:05:35.036Z,100563.13
2019-01-15T08:08:00.803Z,100569.64
2019-01-15T08:10:26.556Z,100573.33
2019-01-15T08:12:52.320Z,100570.45
2019-01-15T08:15:59.765Z,100566.11
2019-01-15T08:18:25.532Z,100551.70
2019-01-15T08:20:51.288Z,100551.70
2019-01-15T08:23:17.073Z,100551.89
2019-01-15T08:25:42.841Z,100546.34
2019-01-15T08:28:09.551Z,100547.02
2019-01-15T08:34:02.962Z,100555.53
2019-01-15T08:36:28.749Z,100550.17
2019-01-15T08:38:54.468Z,100551.52
2019-01-15T08:41:20.214Z,100551.66
2019-01-15T08:43:45.979Z,100551.65
2019-01-15T08:46:12.745Z,100547.62
2019-01-15T08:56:24.355Z,100547.95
2019-01-15T08:58:50.120Z,100549.92
2019-01-15T09:01:15.873Z,100541.21
2019-01-15T09:03:42.126Z,100547.91
2019-01-15T09:06:07.932Z,100544.88
2019-01-15T09:08:33.683Z,100545.22
2019-01-15T09:10:59.440Z,100531.96
2019-01-15T09:13:25.195Z,100536.65
2019-01-15T09:15:50.952Z,100541.86
2019-01-15T09:18:16.803Z,100537.31
2019-01-15T09:20:42.562Z,100535.30
2019-01-15T09:23:08.304Z,100535.80
2019-01-15T09:25:34.083Z,100536.14
2019-01-15T09:27:59.836Z,100528.09
2019-01-15T09:30:25.602Z,100526.56
2019-01-15T09:32:51.362Z,100530.05
2019-01-15T09:35:17.239Z,100535.59
2019-01-15T09:40:30.308Z,100525.34
2019-01-15T09:42:56.057Z,100529.89
2019-01-15T09:46:03.497Z,100519.32
2019-01-15T09:51:16.562Z,100505.77
2019-01-15T09:53:42.314Z,100517.68
2019-01-15T09:56:08.082Z,100496.86
2019-01-15T09:58:33.846Z,100500.05
2019-01-15T10:00:59.604Z,100486.46
2019-01-15T10:03:25.366Z,100483.12
2019-01-15T10:05:51.130Z,100483.50
2019-01-15T10:08:16.876Z,100479.96
2019-01-15T10:10:42.642Z,100484.36
2019-01-15T10:13:08.403Z,100480.64
2019-01-15T10:15:34.169Z,100473.95
2019-01-15T10:17:59.921Z,100476.45
2019-01-15T10:20:25.679Z,100465.91
2019-01-15T10:22:51.503Z,100460.23
2019-01-15T10:31:09.167Z,100452.66
2019-01-15T10:34:16.596Z,100457.02
2019-01-15T10:36:42.161Z,100439.53
2019-01-15T10:41:55.234Z,100430.82
2019-01-15T10:44:20.979Z,100438.70
2019-01-15T10:46:46.746Z,100433.16
2019-01-15T10:49:12.506Z,100423.09
2019-01-15T10:51:38.267Z,100418.57
2019-01-15T10:54:04.011Z,100408.64
2019-01-15T10:56:29.783Z,100407.98
2019-01-15T10:58:55.596Z,100408.99
2019-01-15T11:01:21.363Z,100393.94
2019-01-15T11:03:47.120Z,100390.57
2019-01-15T11:06:12.900Z,100387.40
2019-01-15T11:08:38.656Z,100383.87
2019-01-15T11:11:04.410Z,100390.57
2019-01-15T11:13:30.228Z,100380.20
2019-01-15T11:15:55.932Z,100378.04
2019-01-15T11:18:21.690Z,100369.12
2019-01-15T11:20:47.436Z,100364.73
2019-01-15T11:23:13.210Z,100365.72
2019-01-15T11:25:38.977Z,100370.10
2019-01-15T11:28:46.414Z,100371.41
2019-01-15T11:31:12.267Z,100351.24
2019-01-15T11:33:38.023Z,100354.12
2019-01-15T11:36:03.791Z,100354.25
2019-01-15T11:38:29.556Z,100346.37
2019-01-15T11:40:55.312Z,100342.80
2019-01-15T11:43:21.078Z,100344.83
2019-01-15T11:45:46.841Z,100343.82
2019-01-15T11:48:12.614Z,100343.49
2019-01-15T11:50:38.363Z,100339.27
2019-01-15T11:53:04.129Z,100344.09
2019-01-15T11:56:11.572Z,100344.41
2019-01-15T11:58:37.436Z,100337.57
2019-01-15T12:01:23.075Z,100336.69
2019-01-15T12:04:08.732Z,100319.58
2019-01-15T12:06:54.387Z,100326.25
2019-01-15T12:09:40.040Z,100322.23
2019-01-15T12:15:32.875Z,100301.02
2019-01-15T12:18:18.544Z,100302.69
2019-01-15T12:23:51.496Z,100281.55
2019-01-15T12:26:37.151Z,100288.88
2019-01-15T12:34:38.999Z,100282.52
2019-01-15T12:37:24.643Z,100290.09
2019-01-15T12:40:10.300Z,100284.56
2019-01-15T12:42:55.948Z,100286.23
2019-01-15T12:50:48.833Z,100273.89
2019-01-15T12:53:34.469Z,100272.03
2019-01-15T12:56:20.141Z,100277.52
2019-01-15T12:59:05.785Z,100261.86
2019-01-15T13:01:51.441Z,100277.63
2019-01-15T13:04:37.092Z,100272.06
2019-01-15T13:07:44.528Z,100273.24
2019-01-15T13:10:30.300Z,100272.23
2019-01-15T13:21:30.934Z,100259.34
2019-01-15T13:24:16.574Z,100246.09
2019-01-15T13:27:02.231Z,100237.88
2019-01-15T13:29:47.876Z,100245.62
2019-01-15T13:32:33.533Z,100237.34
2019-01-15T13:38:06.498Z,100239.38
2019-01-15T13:43:30.222Z,100235.84
2019-01-15T13:46:15.876Z,100239.42
2019-01-15T13:51:48.828Z,100225.96
2019-01-15T13:54:34.475Z,100231.69
2019-01-15T13:57:20.131Z,100243.40
2019-01-15T14:00:05.780Z,100233.03
2019-01-15T14:02:51.438Z,100225.27
2019-01-15T14:05:37.087Z,100230.11
2019-01-15T14:08:44.533Z,100232.43
2019-01-15T14:11:30.187Z,100231.45
2019-01-15T14:14:15.827Z,100220.52
2019-01-15T14:17:01.487Z,100212.02
2019-01-15T14:19:47.137Z,100222.59
2019-01-15T14:22:32.791Z,100218.04
2019-01-15T14:28:05.758Z,100220.52
2019-01-15T14:30:51.506Z,100203.73
2019-01-15T14:38:53.570Z,100221.70
2019-01-15T14:41:39.225Z,100213.52
2019-01-15T14:49:41.599Z,100205.47
2019-01-15T14:57:52.762Z,100212.80
2019-01-15T15:04:05.490Z,100215.80
2019-01-15T15:06:51.128Z,100206.48
2019-01-15T15:09:36.785Z,100214.98
2019-01-15T15:20:51.080Z,100216.82
2019-01-15T15:23:35.641Z,100223.04
2019-01-15T15:28:54.653Z,100228.89
2019-01-15T15:36:52.417Z,100233.31
2019-01-15T15:47:36.949Z,100236.00
2019-01-15T15:50:44.397Z,100237.67
2019-01-15T15:53:30.041Z,100242.19
2019-01-15T15:56:15.694Z,100239.27
2019-01-15T15:59:01.346Z,100242.52
2019-01-15T16:01:46.996Z,100241.95
2019-01-15T16:04:32.636Z,100242.97
2019-01-15T16:09:52.210Z,100250.17
2019-01-15T16:15:16.127Z,100252.20
2019-01-15T16:18:01.786Z,100249.19
2019-01-15T16:20:47.445Z,100254.56
2019-01-15T16:28:50.016Z,100242.39
2019-01-15T16:34:44.755Z,100246.87
2019-01-15T16:37:30.462Z,100249.76
2019-01-15T16:40:16.104Z,100240.04
2019-01-15T16:43:01.795Z,100251.39
2019-01-15T16:45:47.429Z,100234.47
2019-01-15T16:48:33.089Z,100239.14
2019-01-15T16:51:18.724Z,100248.02
2019-01-15T16:54:04.405Z,100246.67
2019-01-15T16:56:50.057Z,100247.89
2019-01-15T16:59:35.710Z,100250.33
2019-01-15T17:02:21.357Z,100250.90
2019-01-15T17:05:07.008Z,100248.54
2019-01-15T17:07:52.644Z,100248.98
2019-01-15T17:13:12.160Z,100255.83
2019-01-15T17:15:57.814Z,100255.70
2019-01-15T17:21:30.873Z,100250.98
2019-01-15T17:24:16.532Z,100247.28
2019-01-15T17:29:49.506Z,100253.99
2019-01-15T17:32:35.153Z,100251.63
2019-01-15T17:35:20.808Z,100252.89
2019-01-15T17:38:06.453Z,100243.58
2019-01-15T17:40:52.112Z,100250.94
2019-01-15T17:46:25.068Z,100261.16
2019-01-15T17:49:10.705Z,100259.69
2019-01-15T17:51:56.364Z,100254.44
2019-01-15T17:54:42.008Z,100255.01
2019-01-15T18:02:35.020Z,100249.64
2019-01-15T18:08:07.966Z,100255.38
2019-01-15T18:16:14.408Z,100271.73
2019-01-15T18:19:00.050Z,100264.33
2019-01-15T18:21:45.706Z,100272.05
2019-01-15T18:24:31.372Z,100259.69
2019-01-15T18:27:17.035Z,100266.88
2019-01-15T18:30:02.678Z,100270.26
2019-01-15T18:38:40.428Z,100269.93
2019-01-15T18:41:26.073Z,100277.98
2019-01-15T18:52:02.950Z,100275.10
2019-01-15T18:54:48.757Z,100279.00
2019-01-15T18:57:34.393Z,100281.88
2019-01-15T19:00:20.109Z,100282.25
2019-01-15T19:03:05.882Z,100283.07
2019-01-15T19:05:52.070Z,100285.10
2019-01-15T19:11:11.065Z,100287.46
2019-01-15T19:13:56.932Z,100281.80
2019-01-15T19:16:42.589Z,100291.55
2019-01-15T19:22:06.256Z,100285.98
2019-01-15T19:24:51.952Z,100284.97
2019-01-15T19:27:37.609Z,100289.28
2019-01-15T19:30:45.055Z,100277.45
2019-01-15T19:33:30.742Z,100275.02
2019-01-15T19:38:54.659Z,100275.02
2019-01-15T19:41:40.330Z,100279.37
2019-01-15T19:44:25.983Z,100282.83
2019-01-15T19:47:11.701Z,100275.67
2019-01-15T19:49:57.372Z,100265.78
2019-01-15T19:55:30.336Z,100267.41
2019-01-15T20:03:41.373Z,100273.18
2019-01-15T20:06:29.763Z,100270.82
2019-01-15T20:09:15.442Z,100275.67
2019-01-15T20:17:18.263Z,100280.22
2019-01-15T20:20:00.595Z,100274.33
2019-01-15T20:22:47.249Z,100281.41
2019-01-15T20:28:06.605Z,100284.09
2019-01-15T20:30:52.521Z,100278.55
2019-01-15T20:33:38.096Z,100283.07
2019-01-15T20:36:23.757Z,100285.39
2019-01-15T20:47:28.686Z,100282.70
2019-01-15T20:50:14.346Z,100276.69
2019-01-15T20:53:00.020Z,100283.27
2019-01-15T20:58:33.268Z,100283.80
2019-01-15T21:01:18.904Z,100284.00
2019-01-15T21:04:04.557Z,100296.73
2019-01-15T21:09:57.402Z,100288.72
2019-01-15T21:12:43.091Z,100292.91
2019-01-15T21:15:50.517Z,100295.92
2019-01-15T21:18:36.289Z,100299.17
2019-01-15T21:21:22.159Z,100304.99
2019-01-15T21:24:07.880Z,100292.42
2019-01-15T21:26:53.537Z,100291.77
2019-01-15T21:29:39.186Z,100295.80
2019-01-15T21:35:12.141Z,100292.79
2019-01-15T21:37:57.789Z,100299.95
2019-01-15T21:40:43.438Z,100299.17
2019-01-15T21:51:19.147Z,100302.38
2019-01-15T21:54:04.798Z,100300.34
2019-01-15T21:56:50.443Z,100294.45
2019-01-15T21:59:36.100Z,100306.21
2019-01-15T22:02:21.741Z,100295.47
2019-01-15T22:05:07.397Z,100295.15
2019-01-15T22:07:53.040Z,100298.61
2019-01-15T22:18:24.142Z,100305.16
2019-01-15T22:21:09.789Z,100304.63
2019-01-15T22:23:55.430Z,100305.32
2019-01-15T22:26:41.102Z,100309.18
2019-01-15T22:29:26.738Z,100305.64
2019-01-15T22:32:34.383Z,100304.46
2019-01-15T22:35:20.026Z,100299.26
2019-01-15T22:38:05.735Z,100305.48
2019-01-15T22:41:00.033Z,100304.59
2019-01-15T22:46:32.994Z,100313.46
2019-01-15T22:49:18.655Z,100315.04
2019-01-15T22:52:04.310Z,100325.09
2019-01-15T22:57:37.412Z,100305.97
2019-01-15T23:00:44.832Z,100312.88
2019-01-15T23:06:08.534Z,100307.84
2019-01-15T23:08:54.185Z,100310.23
2019-01-15T23:11:39.832Z,100304.38
2019-01-15T23:19:37.525Z,100305.39
2019-01-15T23:25:10.600Z,100317.83
2019-01-15T23:27:56.252Z,100305.98
2019-01-15T23:30:41.901Z,100312.38
2019-01-15T23:33:27.553Z,100317.73
2019-01-15T23:41:34.040Z,100314.08
2019-01-15T23:44:19.694Z,100307.00
2019-01-15T23:49:52.655Z,100297.65
2019-01-15T23:52:38.293Z,100303.18
2019-01-15T23:55:45.728Z,100302.33
2019-01-15T23:58:53.171Z,100294.64
